createdAt,value
2022-11-12T00:00:53.838Z,5.18
2022-11-12T00:03:21.209Z,5.40
2022-11-12T00:05:49.437Z,5.15
2022-11-12T00:08:16.600Z,5.50
2022-11-12T00:10:43.816Z,4.68
2022-11-12T00:13:10.217Z,5.10
2022-11-12T00:15:36.718Z,5.18
2022-11-12T00:18:03.409Z,5.53
2022-11-12T00:20:29.862Z,5.55
2022-11-12T00:22:56.439Z,5.07
2022-11-12T00:25:22.894Z,4.80
2022-11-12T00:27:49.424Z,4.88
2022-11-12T00:30:16.240Z,5.13
2022-11-12T00:32:42.733Z,4.78
2022-11-12T00:35:13.486Z,4.68
2022-11-12T00:37:40.724Z,4.70
2022-11-12T00:40:08.033Z,5.20
2022-11-12T00:42:34.679Z,4.40
2022-11-12T00:45:01.193Z,5.18
2022-11-12T00:47:27.650Z,4.53
2022-11-12T00:49:54.192Z,4.45
2022-11-12T00:52:20.747Z,4.78
2022-11-12T00:54:47.158Z,4.10
2022-11-12T00:57:13.577Z,4.40
2022-11-12T00:59:39.973Z,5.07
2022-11-12T01:02:06.477Z,4.95
2022-11-12T01:04:33.813Z,3.78
2022-11-12T01:07:00.282Z,4.55
2022-11-12T01:09:26.771Z,4.32
2022-11-12T01:11:53.168Z,4.88
2022-11-12T01:14:19.589Z,4.80
2022-11-12T01:16:46.002Z,4.93
2022-11-12T01:19:13.725Z,4.68
2022-11-12T01:21:43.114Z,4.90
2022-11-12T01:24:10.719Z,5.03
2022-11-12T01:26:38.005Z,5.10
2022-11-12T01:29:05.088Z,5.00
2022-11-12T01:31:36.418Z,5.10
2022-11-12T01:34:06.006Z,4.63
2022-11-12T01:36:39.375Z,4.47
2022-11-12T01:39:08.974Z,4.75
2022-11-12T01:41:38.447Z,3.97
2022-11-12T01:44:08.836Z,4.25
2022-11-12T01:46:43.769Z,4.38
2022-11-12T01:49:16.020Z,4.63
2022-11-12T01:51:46.953Z,4.40
2022-11-12T01:54:18.109Z,5.13
2022-11-12T01:56:44.907Z,5.13
2022-11-12T01:59:19.779Z,5.10
2022-11-12T02:01:46.208Z,3.92
2022-11-12T02:04:12.847Z,4.97
2022-11-12T02:07:22.516Z,4.47
2022-11-12T02:09:49.022Z,4.40
2022-11-12T02:12:35.809Z,4.63
2022-11-12T02:15:03.671Z,4.28
2022-11-12T02:17:30.095Z,4.60
2022-11-12T02:19:59.483Z,4.07
2022-11-12T02:22:25.889Z,4.10
2022-11-12T02:24:52.289Z,3.63
2022-11-12T02:27:19.005Z,4.10
2022-11-12T02:29:48.211Z,3.97
2022-11-12T02:32:14.735Z,4.00
2022-11-12T02:34:41.509Z,4.03
2022-11-12T02:37:07.996Z,3.35
2022-11-12T02:39:34.441Z,3.53
2022-11-12T02:42:00.852Z,4.00
2022-11-12T02:44:27.377Z,3.20
2022-11-12T02:46:53.777Z,3.70
2022-11-12T02:49:20.169Z,4.18
2022-11-12T02:51:46.631Z,3.45
2022-11-12T02:54:13.065Z,3.63
2022-11-12T02:56:39.598Z,3.60
2022-11-12T02:59:06.006Z,5.25
2022-11-12T03:01:32.474Z,4.28
2022-11-12T03:03:59.520Z,3.67
2022-11-12T03:06:25.961Z,3.15
2022-11-12T03:08:52.340Z,3.20
2022-11-12T03:11:18.758Z,3.95
2022-11-12T03:13:45.303Z,3.78
2022-11-12T03:16:11.738Z,3.60
2022-11-12T03:18:38.141Z,4.07
2022-11-12T03:21:05.099Z,3.10
2022-11-12T03:23:31.940Z,3.72
2022-11-12T03:25:58.892Z,3.65
2022-11-12T03:28:25.731Z,3.03
2022-11-12T03:30:57.502Z,3.40
2022-11-12T03:35:50.403Z,3.85
2022-11-12T03:38:16.845Z,2.90
2022-11-12T03:40:43.228Z,3.20
2022-11-12T03:43:09.775Z,3.35
2022-11-12T03:45:36.462Z,2.90
2022-11-12T03:48:03.044Z,3.30
2022-11-12T03:50:30.349Z,3.58
2022-11-12T03:52:58.573Z,4.28
2022-11-12T03:55:27.516Z,3.85
2022-11-12T03:57:55.133Z,3.53
2022-11-12T04:00:23.026Z,3.75
2022-11-12T04:02:49.780Z,3.55
2022-11-12T04:05:34.976Z,3.50
2022-11-12T04:08:24.350Z,3.50
2022-11-12T04:10:51.502Z,4.22
2022-11-12T04:13:30.049Z,4.65
2022-11-12T04:16:25.518Z,3.97
2022-11-12T04:19:13.261Z,4.53
2022-11-12T04:21:51.500Z,4.47
2022-11-12T04:24:39.913Z,4.65
2022-11-12T04:27:07.712Z,4.43
2022-11-12T04:29:52.570Z,4.22
2022-11-12T04:32:19.000Z,4.35
2022-11-12T04:34:45.484Z,4.38
2022-11-12T04:37:11.941Z,4.68
2022-11-12T04:39:38.346Z,4.32
2022-11-12T04:42:23.940Z,4.60
2022-11-12T04:45:16.513Z,4.18
2022-11-12T04:47:46.296Z,4.30
2022-11-12T04:50:17.883Z,4.65
2022-11-12T04:55:11.576Z,3.80
2022-11-12T04:57:38.490Z,3.70
2022-11-12T05:00:05.796Z,4.13
2022-11-12T05:02:32.225Z,4.45
2022-11-12T05:04:58.636Z,4.18
2022-11-12T05:07:25.072Z,3.92
2022-11-12T05:09:51.487Z,4.18
2022-11-12T05:12:18.041Z,4.25
2022-11-12T05:14:44.427Z,5.03
2022-11-12T05:17:10.899Z,3.80
2022-11-12T05:19:37.371Z,4.10
2022-11-12T05:22:06.945Z,4.47
2022-11-12T05:24:42.630Z,4.03
2022-11-12T05:27:20.803Z,4.20
2022-11-12T05:29:47.656Z,4.35
2022-11-12T05:32:16.059Z,4.10
2022-11-12T05:34:42.760Z,3.97
2022-11-12T05:37:10.645Z,4.18
2022-11-12T05:39:37.408Z,4.18
2022-11-12T05:42:13.461Z,4.22
2022-11-12T05:44:41.192Z,4.53
2022-11-12T05:47:07.702Z,4.70
2022-11-12T05:49:34.101Z,4.28
2022-11-12T05:52:00.575Z,4.22
2022-11-12T05:54:26.952Z,5.15
2022-11-12T05:56:53.726Z,4.55
2022-11-12T05:59:20.521Z,4.90
2022-11-12T06:01:46.951Z,4.05
2022-11-12T06:04:14.790Z,4.88
2022-11-12T06:06:42.436Z,4.47
2022-11-12T06:09:09.816Z,4.18
2022-11-12T06:11:37.207Z,4.93
2022-11-12T06:14:04.566Z,5.07
2022-11-12T06:16:31.729Z,5.00
2022-11-12T06:18:58.581Z,8.90
2022-11-12T06:21:27.246Z,8.77
2022-11-12T06:23:59.632Z,5.38
2022-11-12T06:26:28.497Z,4.75
2022-11-12T06:28:55.682Z,5.80
2022-11-12T06:31:22.959Z,6.20
2022-11-12T06:33:50.188Z,5.55
2022-11-12T06:36:18.856Z,6.13
2022-11-12T06:38:45.740Z,5.40
2022-11-12T06:41:13.755Z,5.65
2022-11-12T06:43:40.967Z,5.25
2022-11-12T06:46:12.710Z,4.95
2022-11-12T06:48:39.446Z,5.13
2022-11-12T06:51:07.948Z,4.65
2022-11-12T06:53:34.424Z,4.82
2022-11-12T06:56:05.928Z,4.65
2022-11-12T06:58:32.551Z,4.78
2022-11-12T07:01:12.146Z,5.18
2022-11-12T07:03:40.123Z,5.35
2022-11-12T07:06:10.033Z,5.38
2022-11-12T07:08:36.999Z,4.82
2022-11-12T07:11:03.996Z,5.40
2022-11-12T07:13:32.498Z,5.57
2022-11-12T07:16:00.497Z,4.50
2022-11-12T07:18:28.445Z,4.82
2022-11-12T07:21:04.135Z,5.60
2022-11-12T07:23:32.554Z,5.18
2022-11-12T07:26:04.183Z,5.20
2022-11-12T07:30:59.328Z,20.98
2022-11-12T07:33:27.083Z,18.10
2022-11-12T07:36:04.856Z,14.52
2022-11-12T07:38:33.142Z,10.85
2022-11-12T07:41:05.614Z,11.48
2022-11-12T07:43:36.797Z,12.00
2022-11-12T07:46:10.237Z,9.10
2022-11-12T07:48:38.387Z,7.80
2022-11-12T07:51:13.347Z,7.20
2022-11-12T07:53:41.194Z,6.47
2022-11-12T07:56:07.784Z,6.55
2022-11-12T07:58:34.625Z,6.40
2022-11-12T08:01:23.541Z,5.90
2022-11-12T08:03:49.976Z,5.38
2022-11-12T08:06:16.368Z,5.40
2022-11-12T08:08:42.771Z,5.32
2022-11-12T08:11:09.394Z,5.07
2022-11-12T08:13:35.829Z,5.35
2022-11-12T08:16:02.417Z,4.90
2022-11-12T08:18:29.808Z,5.18
2022-11-12T08:21:03.856Z,4.93
2022-11-12T08:23:30.650Z,6.03
2022-11-12T08:26:07.113Z,5.32
2022-11-12T08:28:35.687Z,6.07
2022-11-12T08:31:07.125Z,5.93
2022-11-12T08:33:34.703Z,6.10
2022-11-12T08:36:09.805Z,5.63
2022-11-12T08:38:36.309Z,5.85
2022-11-12T08:41:04.672Z,6.28
2022-11-12T08:43:31.088Z,5.30
2022-11-12T08:45:59.204Z,5.97
2022-11-12T08:48:26.799Z,5.00
2022-11-12T08:50:53.790Z,6.10
2022-11-12T08:53:22.154Z,5.28
2022-11-12T08:55:48.580Z,5.93
2022-11-12T08:58:15.012Z,6.70
2022-11-12T09:00:43.473Z,5.75
2022-11-12T09:03:15.351Z,6.43
2022-11-12T09:05:42.508Z,5.35
2022-11-12T09:08:12.341Z,6.43
2022-11-12T09:10:39.446Z,6.53
2022-11-12T09:13:06.330Z,7.07
2022-11-12T09:15:37.842Z,6.88
2022-11-12T09:18:08.083Z,7.55
2022-11-12T09:20:34.692Z,8.23
2022-11-12T09:23:08.093Z,7.78
2022-11-12T09:25:35.194Z,8.45
2022-11-12T09:28:13.027Z,9.15
2022-11-12T09:30:43.589Z,10.00
2022-11-12T09:33:10.028Z,9.77
2022-11-12T09:35:36.411Z,10.60
2022-11-12T09:38:02.866Z,10.98
2022-11-12T09:40:45.582Z,12.52
2022-11-12T09:43:34.101Z,11.15
2022-11-12T09:46:26.568Z,11.95
2022-11-12T09:49:21.313Z,12.10
2022-11-12T09:52:23.668Z,13.15
2022-11-12T09:55:01.234Z,12.70
2022-11-12T09:57:27.787Z,12.02
2022-11-12T09:59:54.184Z,13.32
2022-11-12T10:02:29.546Z,13.50
2022-11-12T10:05:12.283Z,13.55
2022-11-12T10:08:19.198Z,14.23
2022-11-12T10:10:52.963Z,14.80
2022-11-12T10:13:31.604Z,15.80
2022-11-12T10:16:40.009Z,15.88
2022-11-12T10:19:18.433Z,17.30
2022-11-12T10:21:56.548Z,16.23
2022-11-12T10:24:24.176Z,15.93
2022-11-12T10:26:52.213Z,16.55
2022-11-12T10:29:36.229Z,17.60
2022-11-12T10:32:03.395Z,17.95
2022-11-12T10:34:31.211Z,19.00
2022-11-12T10:37:11.205Z,18.45
2022-11-12T10:39:42.936Z,17.65
2022-11-12T10:42:16.569Z,18.60
2022-11-12T10:44:44.173Z,17.63
2022-11-12T10:47:25.211Z,18.42
2022-11-12T10:50:10.225Z,18.13
2022-11-12T10:52:37.229Z,17.52
2022-11-12T10:55:25.388Z,17.00
2022-11-12T10:58:13.226Z,17.45
2022-11-12T11:01:07.302Z,16.35
2022-11-12T11:03:36.973Z,15.82
2022-11-12T11:06:07.594Z,14.73
2022-11-12T11:08:46.193Z,14.70
2022-11-12T11:11:31.996Z,15.32
2022-11-12T11:14:40.034Z,12.32
2022-11-12T11:17:15.565Z,11.73
2022-11-12T11:19:42.794Z,12.18
2022-11-12T11:22:47.906Z,12.57
2022-11-12T11:25:35.666Z,12.35
2022-11-12T11:28:23.212Z,12.25
2022-11-12T11:31:30.857Z,12.23
2022-11-12T11:34:21.783Z,13.05
2022-11-12T11:37:03.107Z,12.40
2022-11-12T11:39:45.427Z,11.98
2022-11-12T11:42:23.625Z,11.70
2022-11-12T11:44:55.672Z,11.82
2022-11-12T11:47:59.898Z,10.73
2022-11-12T11:50:30.926Z,11.20
2022-11-12T11:53:22.209Z,10.32
2022-11-12T11:56:02.198Z,10.43
2022-11-12T11:58:43.592Z,10.20
2022-11-12T12:01:34.912Z,8.82
2022-11-12T12:04:07.410Z,9.95
2022-11-12T12:06:45.732Z,9.68
2022-11-12T12:09:43.804Z,10.77
2022-11-12T12:12:32.055Z,9.07
2022-11-12T12:15:22.356Z,9.00
2022-11-12T12:18:11.049Z,10.25
2022-11-12T12:20:53.237Z,9.60
2022-11-12T12:23:29.097Z,9.10
2022-11-12T12:26:00.369Z,9.30
2022-11-12T12:31:07.372Z,9.70
2022-11-12T12:33:44.013Z,9.20
2022-11-12T12:36:18.085Z,9.65
2022-11-12T12:39:03.026Z,10.13
2022-11-12T12:41:37.265Z,10.18
2022-11-12T12:44:06.539Z,11.43
2022-11-12T12:46:40.575Z,11.95
2022-11-12T12:49:11.593Z,11.95
2022-11-12T12:51:38.016Z,11.60
2022-11-12T12:54:04.625Z,11.10
2022-11-12T12:56:31.043Z,10.68
2022-11-12T12:59:03.457Z,10.85
2022-11-12T13:01:34.276Z,14.77
2022-11-12T13:04:08.802Z,13.43
2022-11-12T13:06:45.411Z,12.95
2022-11-12T13:09:14.883Z,12.55
2022-11-12T13:12:00.913Z,12.75
2022-11-12T13:14:36.336Z,14.85
2022-11-12T13:17:04.027Z,12.93
2022-11-12T13:19:39.528Z,13.23
2022-11-12T13:22:18.001Z,12.75
2022-11-12T13:25:20.164Z,13.40
2022-11-12T13:27:47.058Z,14.98
2022-11-12T13:30:13.445Z,13.05
2022-11-12T13:32:48.708Z,12.75
2022-11-12T13:35:22.319Z,13.88
2022-11-12T13:37:54.905Z,13.32
2022-11-12T13:40:33.651Z,14.18
2022-11-12T13:43:19.887Z,13.43
2022-11-12T13:45:57.664Z,12.10
2022-11-12T13:48:30.854Z,12.73
2022-11-12T13:51:03.253Z,12.63
2022-11-12T13:53:32.941Z,13.23
2022-11-12T13:55:59.734Z,12.50
2022-11-12T13:58:31.585Z,13.20
2022-11-12T14:01:00.706Z,12.60
2022-11-12T14:03:32.472Z,12.02
2022-11-12T14:09:10.082Z,12.70
2022-11-12T14:12:13.646Z,11.82
2022-11-12T14:15:13.789Z,12.25
2022-11-12T14:18:12.411Z,13.45
2022-11-12T14:20:40.232Z,13.32
2022-11-12T14:23:24.248Z,15.02
2022-11-12T14:25:56.519Z,14.52
2022-11-12T14:28:41.303Z,13.40
2022-11-12T14:31:14.530Z,13.05
2022-11-12T14:33:41.011Z,13.45
2022-11-12T14:36:14.998Z,14.60
2022-11-12T14:38:48.482Z,14.65
2022-11-12T14:41:22.487Z,14.77
2022-11-12T14:44:11.413Z,15.45
2022-11-12T14:46:50.924Z,16.70
2022-11-12T14:49:20.071Z,17.02
2022-11-12T14:51:56.082Z,16.48
2022-11-12T14:54:36.559Z,16.02
2022-11-12T14:57:04.351Z,16.75
2022-11-12T14:59:31.707Z,15.80
2022-11-12T15:02:28.659Z,16.67
2022-11-12T15:05:04.443Z,17.55
2022-11-12T15:07:34.923Z,15.38
2022-11-12T15:10:31.413Z,16.45
2022-11-12T15:13:03.936Z,15.52
2022-11-12T15:15:31.770Z,15.80
2022-11-12T15:18:07.577Z,15.45
2022-11-12T15:20:34.120Z,16.55
2022-11-12T15:23:00.961Z,15.82
2022-11-12T15:25:31.608Z,17.30
2022-11-12T15:28:33.551Z,17.42
2022-11-12T15:31:18.642Z,16.85
2022-11-12T15:33:45.090Z,15.90
2022-11-12T15:36:20.952Z,16.15
2022-11-12T15:38:50.655Z,16.58
2022-11-12T15:41:30.139Z,17.80
2022-11-12T15:43:56.833Z,16.90
2022-11-12T15:46:23.280Z,17.77
2022-11-12T15:48:55.557Z,16.13
2022-11-12T15:51:22.550Z,17.88
2022-11-12T15:53:49.072Z,19.45
2022-11-12T15:56:19.167Z,19.73
2022-11-12T15:58:45.642Z,18.98
2022-11-12T16:01:12.501Z,19.30
2022-11-12T16:03:39.180Z,18.95
2022-11-12T16:06:09.307Z,18.50
2022-11-12T16:08:35.963Z,18.60
2022-11-12T16:11:02.499Z,18.67
2022-11-12T16:13:33.192Z,18.80
2022-11-12T16:16:04.225Z,18.30
2022-11-12T16:18:30.622Z,18.75
2022-11-12T16:20:57.002Z,18.40
2022-11-12T16:23:23.451Z,19.42
2022-11-12T16:25:49.915Z,18.52
2022-11-12T16:28:18.257Z,22.42
2022-11-12T16:30:46.525Z,28.75
2022-11-12T16:33:13.618Z,27.48
2022-11-12T16:35:40.348Z,24.30
2022-11-12T16:38:14.395Z,35.60
2022-11-12T16:40:41.267Z,42.17
2022-11-12T16:43:07.788Z,29.85
2022-11-12T16:45:37.977Z,40.50
2022-11-12T16:48:12.271Z,49.17
2022-11-12T16:50:39.011Z,37.38
2022-11-12T16:53:05.419Z,35.08
2022-11-12T16:55:31.848Z,32.85
2022-11-12T16:57:58.283Z,33.22
2022-11-12T17:00:24.816Z,33.88
2022-11-12T17:02:53.590Z,30.83
2022-11-12T17:05:25.715Z,28.38
2022-11-12T17:07:57.178Z,30.70
2022-11-12T17:10:24.004Z,28.80
2022-11-12T17:12:52.210Z,27.80
2022-11-12T17:15:19.067Z,26.52
2022-11-12T17:17:45.505Z,25.83
2022-11-12T17:20:12.005Z,24.35
2022-11-12T17:22:38.460Z,26.27
2022-11-12T17:25:06.316Z,31.42
2022-11-12T17:27:32.727Z,29.00
2022-11-12T17:29:59.150Z,27.83
2022-11-12T17:32:25.650Z,24.65
2022-11-12T17:34:52.083Z,27.20
2022-11-12T17:37:18.595Z,28.50
2022-11-12T17:39:45.047Z,27.75
2022-11-12T17:42:11.503Z,25.23
2022-11-12T17:44:37.943Z,25.67
2022-11-12T17:47:04.386Z,24.95
2022-11-12T17:49:30.937Z,24.08
2022-11-12T17:51:57.363Z,25.67
2022-11-12T17:54:24.117Z,27.73
2022-11-12T17:56:50.533Z,29.85
2022-11-12T17:59:16.994Z,28.75
2022-11-12T18:01:43.520Z,27.75
2022-11-12T18:04:10.462Z,27.65
2022-11-12T18:06:37.066Z,27.15
2022-11-12T18:09:08.849Z,26.60
2022-11-12T18:14:09.817Z,26.25
2022-11-12T18:16:36.700Z,25.90
2022-11-12T18:19:03.417Z,27.30
2022-11-12T18:21:29.831Z,25.40
2022-11-12T18:23:56.423Z,27.38
2022-11-12T18:26:22.890Z,47.83
2022-11-12T18:28:56.389Z,36.47
2022-11-12T18:31:24.519Z,44.00
2022-11-12T18:33:51.655Z,27.55
2022-11-12T18:36:20.914Z,27.30
2022-11-12T18:38:50.048Z,26.55
2022-11-12T18:41:18.284Z,28.45
2022-11-12T18:43:44.733Z,30.08
2022-11-12T18:46:11.692Z,32.10
2022-11-12T18:48:38.970Z,28.50
2022-11-12T18:51:08.890Z,28.52
2022-11-12T18:53:36.831Z,27.73
2022-11-12T18:56:08.598Z,26.63
2022-11-12T18:58:35.677Z,26.75
2022-11-12T19:01:08.675Z,27.65
2022-11-12T19:03:35.992Z,27.00
2022-11-12T19:06:05.216Z,27.70
2022-11-12T19:08:31.686Z,30.00
2022-11-12T19:10:59.576Z,29.75
2022-11-12T19:13:26.885Z,29.50
2022-11-12T19:15:54.091Z,31.67
2022-11-12T19:18:20.733Z,32.28
2022-11-12T19:20:48.545Z,29.77
2022-11-12T19:23:15.293Z,30.70
2022-11-12T19:25:41.972Z,35.10
2022-11-12T19:28:08.476Z,31.13
2022-11-12T19:30:34.882Z,28.20
2022-11-12T19:33:01.272Z,28.38
2022-11-12T19:35:27.684Z,31.30
2022-11-12T19:37:54.120Z,29.65
2022-11-12T19:40:20.497Z,30.65
2022-11-12T19:42:48.006Z,30.55
2022-11-12T19:45:14.512Z,29.95
2022-11-12T19:47:40.903Z,29.45
2022-11-12T19:50:07.951Z,30.42
2022-11-12T19:52:34.374Z,30.52
2022-11-12T19:55:01.009Z,29.88
2022-11-12T19:57:29.008Z,29.27
2022-11-12T19:59:55.494Z,30.33
2022-11-12T20:02:21.898Z,29.98
2022-11-12T20:04:48.291Z,29.63
2022-11-12T20:07:14.749Z,29.77
2022-11-12T20:09:41.316Z,28.38
2022-11-12T20:12:07.924Z,29.90
2022-11-12T20:14:34.558Z,29.30
2022-11-12T20:17:01.026Z,29.17
2022-11-12T20:19:27.825Z,29.77
2022-11-12T20:21:54.494Z,30.15
2022-11-12T20:24:20.975Z,30.30
2022-11-12T20:26:47.417Z,31.00
2022-11-12T20:29:13.831Z,29.52
2022-11-12T20:31:41.903Z,30.55
2022-11-12T20:34:08.395Z,29.05
2022-11-12T20:36:34.805Z,29.45
2022-11-12T20:39:02.104Z,28.92
2022-11-12T20:41:28.636Z,29.08
2022-11-12T20:44:00.269Z,27.83
2022-11-12T20:48:56.403Z,27.95
2022-11-12T20:51:26.025Z,29.52
2022-11-12T20:53:58.857Z,29.15
2022-11-12T20:56:28.105Z,29.38
2022-11-12T20:58:54.513Z,27.85
2022-11-12T21:01:23.089Z,28.02
2022-11-12T21:03:49.752Z,28.08
2022-11-12T21:06:19.289Z,29.50
2022-11-12T21:08:45.784Z,28.42
2022-11-12T21:11:14.564Z,28.90
2022-11-12T21:13:41.704Z,29.92
2022-11-12T21:16:09.861Z,30.45
2022-11-12T21:18:37.086Z,30.25
2022-11-12T21:21:07.899Z,27.35
2022-11-12T21:23:37.010Z,28.17
2022-11-12T21:26:09.971Z,27.40
2022-11-12T21:28:38.187Z,27.70
2022-11-12T21:31:06.592Z,28.25
2022-11-12T21:33:33.198Z,28.77
2022-11-12T21:35:59.634Z,28.50
2022-11-12T21:38:27.671Z,28.75
2022-11-12T21:41:07.924Z,28.15
2022-11-12T21:43:38.609Z,28.27
2022-11-12T21:46:19.431Z,26.73
2022-11-12T21:48:49.906Z,26.83
2022-11-12T21:51:21.114Z,29.90
2022-11-12T21:53:47.664Z,27.85
2022-11-12T21:56:16.740Z,27.15
2022-11-12T21:58:44.173Z,29.20
2022-11-12T22:01:17.731Z,28.45
2022-11-12T22:03:44.864Z,29.13
2022-11-12T22:06:12.011Z,29.52
2022-11-12T22:08:39.309Z,27.95
2022-11-12T22:11:08.372Z,28.02
2022-11-12T22:13:35.627Z,28.90
2022-11-12T22:16:25.772Z,28.98
2022-11-12T22:18:54.395Z,27.52
2022-11-12T22:21:23.253Z,29.05
2022-11-12T22:23:49.901Z,26.83
2022-11-12T22:26:20.600Z,29.13
2022-11-12T22:28:47.283Z,29.60
2022-11-12T22:31:15.950Z,28.52
2022-11-12T22:33:42.473Z,27.67
2022-11-12T22:36:20.925Z,29.45
2022-11-12T22:38:50.126Z,27.92
2022-11-12T22:41:22.130Z,26.55
2022-11-12T22:43:56.803Z,27.70
2022-11-12T22:46:25.874Z,28.45
2022-11-12T22:48:52.504Z,27.70
2022-11-12T22:51:21.731Z,26.90
2022-11-12T22:53:48.325Z,26.15
2022-11-12T22:56:16.432Z,28.85
2022-11-12T22:58:45.289Z,29.65
2022-11-12T23:01:29.728Z,27.75
2022-11-12T23:03:58.641Z,26.88
2022-11-12T23:06:25.656Z,28.10
2022-11-12T23:08:56.537Z,29.85
2022-11-12T23:11:26.100Z,29.67
2022-11-12T23:13:54.011Z,27.98
2022-11-12T23:16:26.149Z,28.80
2022-11-12T23:18:53.133Z,28.83
2022-11-12T23:21:23.077Z,29.95
2022-11-12T23:23:49.932Z,28.50
2022-11-12T23:26:19.300Z,27.88
2022-11-12T23:28:45.867Z,27.05
2022-11-12T23:31:24.185Z,27.08
2022-11-12T23:33:53.033Z,25.85
2022-11-12T23:36:20.602Z,26.05
2022-11-12T23:38:47.488Z,25.17
2022-11-12T23:41:16.910Z,25.85
2022-11-12T23:43:43.475Z,26.00
2022-11-12T23:46:10.773Z,24.35
2022-11-12T23:48:37.322Z,25.52
2022-11-12T23:51:14.934Z,25.10
2022-11-12T23:53:41.410Z,23.40
2022-11-12T23:56:09.825Z,23.38
2022-11-12T23:58:38.580Z,25.05
